sensor_id;sensor_type;location;lat;lon;timestamp;P1;durP1;ratioP1;P2;durP2;ratioP2
6902;SDS011;20232;49.408;8.702;2024-01-16T05:00:49;9.63;;;6.90;;
6902;SDS011;20232;49.408;8.702;2024-01-16T05:03:14;13.90;;;7.80;;
6902;SDS011;20232;49.408;8.702;2024-01-16T05:05:39;11.47;;;6.87;;
6902;SDS011;20232;49.408;8.702;2024-01-16T05:08:05;10.37;;;6.23;;
6902;SDS011;20232;49.408;8.702;2024-01-16T05:10:30;9.97;;;7.00;;
6902;SDS011;20232;49.408;8.702;2024-01-16T05:12:56;9.00;;;6.63;;
6902;SDS011;20232;49.408;8.702;2024-01-16T05:15:21;14.00;;;7.23;;
6902;SDS011;20232;49.408;8.702;2024-01-16T05:17:46;9.70;;;6.77;;
6902;SDS011;20232;49.408;8.702;2024-01-16T05:20:12;11.60;;;7.13;;
6902;SDS011;20232;49.408;8.702;2024-01-16T05:22:37;13.87;;;6.80;;
6902;SDS011;20232;49.408;8.702;2024-01-16T05:25:06;10.30;;;6.83;;
6902;SDS011;20232;49.408;8.702;2024-01-16T05:27:35;9.67;;;6.33;;
6902;SDS011;20232;49.408;8.702;2024-01-16T05:30:00;9.97;;;7.10;;
6902;SDS011;20232;49.408;8.702;2024-01-16T05:32:26;11.37;;;6.53;;
6902;SDS011;20232;49.408;8.702;2024-01-16T05:34:51;11.90;;;6.53;;
6902;SDS011;20232;49.408;8.702;2024-01-16T05:37:17;10.27;;;6.83;;
6902;SDS011;20232;49.408;8.702;2024-01-16T05:39:43;13.20;;;6.73;;
6902;SDS011;20232;49.408;8.702;2024-01-16T05:42:09;10.63;;;6.87;;
6902;SDS011;20232;49.408;8.702;2024-01-16T05:44:34;14.40;;;6.90;;
6902;SDS011;20232;49.408;8.702;2024-01-16T05:47:00;9.90;;;6.83;;
6902;SDS011;20232;49.408;8.702;2024-01-16T05:49:25;9.37;;;6.87;;
6902;SDS011;20232;49.408;8.702;2024-01-16T05:51:51;9.73;;;7.00;;
6902;SDS011;20232;49.408;8.702;2024-01-16T05:54:16;11.80;;;7.20;;
6902;SDS011;20232;49.408;8.702;2024-01-16T05:56:42;14.97;;;6.87;;
6902;SDS011;20232;49.408;8.702;2024-01-16T05:59:07;12.37;;;7.47;;
6902;SDS011;20232;49.408;8.702;2024-01-16T06:01:33;11.63;;;7.03;;
6902;SDS011;20232;49.408;8.702;2024-01-16T06:03:58;12.03;;;6.90;;
6902;SDS011;20232;49.408;8.702;2024-01-16T06:06:25;10.70;;;7.23;;
6902;SDS011;20232;49.408;8.702;2024-01-16T06:08:50;11.20;;;7.50;;
6902;SDS011;20232;49.408;8.702;2024-01-16T06:11:16;16.00;;;8.67;;
6902;SDS011;20232;49.408;8.702;2024-01-16T06:13:41;12.83;;;7.33;;
6902;SDS011;20232;49.408;8.702;2024-01-16T06:16:06;13.13;;;7.23;;
6902;SDS011;20232;49.408;8.702;2024-01-16T06:18:34;15.40;;;8.60;;
6902;SDS011;20232;49.408;8.702;2024-01-16T06:21:01;14.07;;;8.20;;
6902;SDS011;20232;49.408;8.702;2024-01-16T06:23:26;16.13;;;8.47;;
6902;SDS011;20232;49.408;8.702;2024-01-16T06:25:52;12.70;;;8.23;;
6902;SDS011;20232;49.408;8.702;2024-01-16T06:28:17;13.10;;;7.93;;
6902;SDS011;20232;49.408;8.702;2024-01-16T06:30:42;12.67;;;7.80;;
6902;SDS011;20232;49.408;8.702;2024-01-16T06:33:08;14.97;;;8.80;;
6902;SDS011;20232;49.408;8.702;2024-01-16T06:35:33;14.33;;;8.00;;
6902;SDS011;20232;49.408;8.702;2024-01-16T06:37:58;12.20;;;7.97;;
6902;SDS011;20232;49.408;8.702;2024-01-16T06:40:24;9.33;;;7.47;;
6902;SDS011;20232;49.408;8.702;2024-01-16T06:42:49;14.40;;;7.97;;
6902;SDS011;20232;49.408;8.702;2024-01-16T06:45:14;14.00;;;7.80;;
6902;SDS011;20232;49.408;8.702;2024-01-16T06:47:41;14.23;;;7.77;;
6902;SDS011;20232;49.408;8.702;2024-01-16T06:50:07;11.73;;;8.10;;
6902;SDS011;20232;49.408;8.702;2024-01-16T06:52:33;13.57;;;8.70;;
6902;SDS011;20232;49.408;8.702;2024-01-16T06:54:58;15.83;;;8.00;;
6902;SDS011;20232;49.408;8.702;2024-01-16T06:57:23;12.57;;;8.23;;
6902;SDS011;20232;49.408;8.702;2024-01-16T06:59:49;12.00;;;8.60;;
6902;SDS011;20232;49.408;8.702;2024-01-16T07:02:14;14.50;;;8.30;;
6902;SDS011;20232;49.408;8.702;2024-01-16T07:04:40;14.40;;;8.23;;
6902;SDS011;20232;49.408;8.702;2024-01-16T07:07:05;14.90;;;8.00;;
6902;SDS011;20232;49.408;8.702;2024-01-16T07:09:30;12.23;;;8.53;;
6902;SDS011;20232;49.408;8.702;2024-01-16T07:11:56;13.07;;;8.40;;
6902;SDS011;20232;49.408;8.702;2024-01-16T07:14:21;12.87;;;7.97;;
6902;SDS011;20232;49.408;8.702;2024-01-16T07:16:47;13.10;;;7.97;;
6902;SDS011;20232;49.408;8.702;2024-01-16T07:19:12;10.97;;;7.97;;
6902;SDS011;20232;49.408;8.702;2024-01-16T07:21:37;11.73;;;7.90;;
6902;SDS011;20232;49.408;8.702;2024-01-16T07:24:03;13.13;;;8.53;;
6902;SDS011;20232;49.408;8.702;2024-01-16T07:26:29;16.50;;;8.90;;
6902;SDS011;20232;49.408;8.702;2024-01-16T07:28:54;13.33;;;8.23;;
6902;SDS011;20232;49.408;8.702;2024-01-16T07:31:20;10.53;;;8.03;;
6902;SDS011;20232;49.408;8.702;2024-01-16T07:33:45;14.33;;;8.37;;
6902;SDS011;20232;49.408;8.702;2024-01-16T07:36:11;13.77;;;8.30;;
6902;SDS011;20232;49.408;8.702;2024-01-16T07:38:37;20.23;;;8.67;;
6902;SDS011;20232;49.408;8.702;2024-01-16T07:41:02;13.80;;;8.70;;
6902;SDS011;20232;49.408;8.702;2024-01-16T07:43:28;12.03;;;7.80;;
6902;SDS011;20232;49.408;8.702;2024-01-16T07:45:57;13.77;;;8.10;;
6902;SDS011;20232;49.408;8.702;2024-01-16T07:48:22;19.60;;;9.27;;
6902;SDS011;20232;49.408;8.702;2024-01-16T07:50:50;27.23;;;9.13;;
6902;SDS011;20232;49.408;8.702;2024-01-16T07:53:16;15.70;;;9.80;;
6902;SDS011;20232;49.408;8.702;2024-01-16T07:55:44;16.07;;;8.47;;
6902;SDS011;20232;49.408;8.702;2024-01-16T07:58:10;13.10;;;9.03;;
6902;SDS011;20232;49.408;8.702;2024-01-16T08:00:36;12.33;;;7.53;;
6902;SDS011;20232;49.408;8.702;2024-01-16T08:03:01;12.50;;;8.17;;
6902;SDS011;20232;49.408;8.702;2024-01-16T08:05:28;14.37;;;8.30;;
6902;SDS011;20232;49.408;8.702;2024-01-16T08:07:55;13.67;;;9.00;;
6902;SDS011;20232;49.408;8.702;2024-01-16T08:10:23;14.00;;;8.83;;
6902;SDS011;20232;49.408;8.702;2024-01-16T08:12:48;13.20;;;8.60;;
6902;SDS011;20232;49.408;8.702;2024-01-16T08:15:14;10.63;;;8.67;;
6902;SDS011;20232;49.408;8.702;2024-01-16T08:17:40;15.00;;;8.67;;
6902;SDS011;20232;49.408;8.702;2024-01-16T08:20:05;14.57;;;8.80;;
6902;SDS011;20232;49.408;8.702;2024-01-16T08:22:35;14.37;;;9.43;;
6902;SDS011;20232;49.408;8.702;2024-01-16T08:25:01;14.70;;;8.67;;
6902;SDS011;20232;49.408;8.702;2024-01-16T08:27:26;14.53;;;8.83;;
6902;SDS011;20232;49.408;8.702;2024-01-16T08:29:53;11.83;;;7.50;;
6902;SDS011;20232;49.408;8.702;2024-01-16T08:32:19;23.93;;;9.30;;
6902;SDS011;20232;49.408;8.702;2024-01-16T08:34:44;13.90;;;8.67;;
6902;SDS011;20232;49.408;8.702;2024-01-16T08:37:10;18.20;;;9.90;;
6902;SDS011;20232;49.408;8.702;2024-01-16T08:39:35;14.57;;;8.63;;
6902;SDS011;20232;49.408;8.702;2024-01-16T08:42:01;16.10;;;9.23;;
6902;SDS011;20232;49.408;8.702;2024-01-16T08:44:29;16.10;;;9.03;;
6902;SDS011;20232;49.408;8.702;2024-01-16T08:46:54;16.57;;;9.13;;
6902;SDS011;20232;49.408;8.702;2024-01-16T08:49:20;15.83;;;8.73;;
6902;SDS011;20232;49.408;8.702;2024-01-16T08:51:46;37.17;;;13.60;;
6902;SDS011;20232;49.408;8.702;2024-01-16T08:54:11;18.73;;;9.50;;
6902;SDS011;20232;49.408;8.702;2024-01-16T08:56:37;15.60;;;9.67;;
6902;SDS011;20232;49.408;8.702;2024-01-16T08:59:02;12.73;;;8.10;;
6902;SDS011;20232;49.408;8.702;2024-01-16T09:01:27;16.40;;;8.97;;
6902;SDS011;20232;49.408;8.702;2024-01-16T09:03:53;16.60;;;10.03;;
6902;SDS011;20232;49.408;8.702;2024-01-16T09:06:18;15.53;;;8.87;;
6902;SDS011;20232;49.408;8.702;2024-01-16T09:08:43;17.23;;;9.13;;
6902;SDS011;20232;49.408;8.702;2024-01-16T09:11:09;13.37;;;8.37;;
6902;SDS011;20232;49.408;8.702;2024-01-16T09:13:36;14.70;;;7.70;;
6902;SDS011;20232;49.408;8.702;2024-01-16T09:16:02;15.87;;;8.53;;
6902;SDS011;20232;49.408;8.702;2024-01-16T09:18:28;18.50;;;8.33;;
6902;SDS011;20232;49.408;8.702;2024-01-16T09:20:53;13.07;;;8.30;;
6902;SDS011;20232;49.408;8.702;2024-01-16T09:23:20;16.90;;;8.50;;
6902;SDS011;20232;49.408;8.702;2024-01-16T09:25:49;12.43;;;8.10;;
6902;SDS011;20232;49.408;8.702;2024-01-16T09:28:15;13.97;;;8.00;;
6902;SDS011;20232;49.408;8.702;2024-01-16T09:30:41;12.70;;;7.90;;
6902;SDS011;20232;49.408;8.702;2024-01-16T09:33:07;13.23;;;8.07;;
6902;SDS011;20232;49.408;8.702;2024-01-16T09:35:35;15.63;;;8.50;;
6902;SDS011;20232;49.408;8.702;2024-01-16T09:38:00;12.70;;;8.13;;
6902;SDS011;20232;49.408;8.702;2024-01-16T09:40:26;11.53;;;7.83;;
6902;SDS011;20232;49.408;8.702;2024-01-16T09:42:51;14.67;;;8.37;;
6902;SDS011;20232;49.408;8.702;2024-01-16T09:45:19;13.90;;;8.40;;
6902;SDS011;20232;49.408;8.702;2024-01-16T09:47:47;12.03;;;8.37;;
6902;SDS011;20232;49.408;8.702;2024-01-16T09:50:15;15.20;;;9.50;;
6902;SDS011;20232;49.408;8.702;2024-01-16T09:52:42;13.27;;;8.97;;
6902;SDS011;20232;49.408;8.702;2024-01-16T09:55:10;15.63;;;8.67;;
6902;SDS011;20232;49.408;8.702;2024-01-16T09:57:35;11.73;;;7.50;;
6902;SDS011;20232;49.408;8.702;2024-01-16T10:00:05;13.23;;;8.33;;
6902;SDS011;20232;49.408;8.702;2024-01-16T10:02:39;14.07;;;7.83;;
6902;SDS011;20232;49.408;8.702;2024-01-16T10:05:06;14.70;;;7.90;;
6902;SDS011;20232;49.408;8.702;2024-01-16T10:07:36;11.83;;;8.07;;
6902;SDS011;20232;49.408;8.702;2024-01-16T10:10:02;12.53;;;7.70;;
6902;SDS011;20232;49.408;8.702;2024-01-16T10:12:28;12.37;;;7.70;;
6902;SDS011;20232;49.408;8.702;2024-01-16T10:14:54;12.80;;;7.97;;
6902;SDS011;20232;49.408;8.702;2024-01-16T10:17:20;11.40;;;7.97;;
6902;SDS011;20232;49.408;8.702;2024-01-16T10:19:52;11.73;;;7.53;;
6902;SDS011;20232;49.408;8.702;2024-01-16T10:22:20;12.97;;;7.70;;
6902;SDS011;20232;49.408;8.702;2024-01-16T10:24:47;14.70;;;8.10;;
6902;SDS011;20232;49.408;8.702;2024-01-16T10:27:14;16.00;;;7.87;;
6902;SDS011;20232;49.408;8.702;2024-01-16T10:29:53;12.30;;;7.57;;
6902;SDS011;20232;49.408;8.702;2024-01-16T10:32:30;17.20;;;8.43;;
6902;SDS011;20232;49.408;8.702;2024-01-16T10:35:07;11.97;;;7.67;;
6902;SDS011;20232;49.408;8.702;2024-01-16T10:40:17;16.47;;;8.30;;
6902;SDS011;20232;49.408;8.702;2024-01-16T10:42:46;12.60;;;7.63;;
6902;SDS011;20232;49.408;8.702;2024-01-16T10:45:25;15.10;;;7.77;;
6902;SDS011;20232;49.408;8.702;2024-01-16T10:48:01;13.43;;;8.93;;
6902;SDS011;20232;49.408;8.702;2024-01-16T10:50:27;14.90;;;8.83;;
6902;SDS011;20232;49.408;8.702;2024-01-16T10:52:52;13.23;;;8.67;;
6902;SDS011;20232;49.408;8.702;2024-01-16T10:55:20;12.70;;;8.00;;
6902;SDS011;20232;49.408;8.702;2024-01-16T10:57:48;14.07;;;8.47;;
6902;SDS011;20232;49.408;8.702;2024-01-16T11:00:14;12.00;;;8.30;;
6902;SDS011;20232;49.408;8.702;2024-01-16T11:02:45;18.70;;;8.63;;
6902;SDS011;20232;49.408;8.702;2024-01-16T11:05:14;12.60;;;7.97;;
6902;SDS011;20232;49.408;8.702;2024-01-16T11:07:41;14.37;;;8.60;;
6902;SDS011;20232;49.408;8.702;2024-01-16T11:10:07;14.20;;;7.90;;
6902;SDS011;20232;49.408;8.702;2024-01-16T11:12:34;15.33;;;8.07;;
6902;SDS011;20232;49.408;8.702;2024-01-16T11:15:00;11.20;;;7.83;;
6902;SDS011;20232;49.408;8.702;2024-01-16T11:17:32;12.17;;;7.50;;
6902;SDS011;20232;49.408;8.702;2024-01-16T11:19:59;15.20;;;8.27;;
6902;SDS011;20232;49.408;8.702;2024-01-16T11:22:25;11.60;;;7.60;;
6902;SDS011;20232;49.408;8.702;2024-01-16T11:25:10;13.17;;;7.80;;
6902;SDS011;20232;49.408;8.702;2024-01-16T11:27:39;14.17;;;8.43;;
6902;SDS011;20232;49.408;8.702;2024-01-16T11:30:06;12.87;;;8.53;;
6902;SDS011;20232;49.408;8.702;2024-01-16T11:32:37;24.53;;;9.70;;
6902;SDS011;20232;49.408;8.702;2024-01-16T11:35:05;11.90;;;7.83;;
6902;SDS011;20232;49.408;8.702;2024-01-16T11:37:34;18.43;;;8.97;;
6902;SDS011;20232;49.408;8.702;2024-01-16T11:42:43;13.13;;;7.77;;
6902;SDS011;20232;49.408;8.702;2024-01-16T11:45:53;12.23;;;8.10;;
6902;SDS011;20232;49.408;8.702;2024-01-16T11:50:35;15.63;;;8.17;;
6902;SDS011;20232;49.408;8.702;2024-01-16T11:53:01;14.30;;;8.53;;
6902;SDS011;20232;49.408;8.702;2024-01-16T11:58:10;15.50;;;7.60;;
6902;SDS011;20232;49.408;8.702;2024-01-16T12:00:44;13.80;;;7.40;;
6902;SDS011;20232;49.408;8.702;2024-01-16T12:03:11;10.57;;;7.83;;
6902;SDS011;20232;49.408;8.702;2024-01-16T12:05:38;14.50;;;7.47;;
6902;SDS011;20232;49.408;8.702;2024-01-16T12:08:04;12.90;;;8.20;;
6902;SDS011;20232;49.408;8.702;2024-01-16T12:10:31;16.00;;;8.00;;
6902;SDS011;20232;49.408;8.702;2024-01-16T12:13:00;15.70;;;8.07;;
6902;SDS011;20232;49.408;8.702;2024-01-16T12:15:25;12.73;;;8.13;;
6902;SDS011;20232;49.408;8.702;2024-01-16T12:20:20;13.13;;;8.20;;
6902;SDS011;20232;49.408;8.702;2024-01-16T12:22:52;15.90;;;8.17;;
6902;SDS011;20232;49.408;8.702;2024-01-16T12:25:19;15.23;;;8.53;;
6902;SDS011;20232;49.408;8.702;2024-01-16T12:27:45;16.63;;;8.53;;
6902;SDS011;20232;49.408;8.702;2024-01-16T12:30:11;12.63;;;7.77;;
6902;SDS011;20232;49.408;8.702;2024-01-16T12:32:38;12.17;;;8.00;;
6902;SDS011;20232;49.408;8.702;2024-01-16T12:35:03;17.63;;;7.97;;
6902;SDS011;20232;49.408;8.702;2024-01-16T12:37:29;14.93;;;8.30;;
6902;SDS011;20232;49.408;8.702;2024-01-16T12:39:55;16.60;;;7.80;;
6902;SDS011;20232;49.408;8.702;2024-01-16T12:42:22;17.00;;;8.20;;
6902;SDS011;20232;49.408;8.702;2024-01-16T12:44:48;15.27;;;8.43;;
6902;SDS011;20232;49.408;8.702;2024-01-16T12:47:16;11.97;;;7.77;;
6902;SDS011;20232;49.408;8.702;2024-01-16T12:49:44;13.40;;;7.70;;
6902;SDS011;20232;49.408;8.702;2024-01-16T12:52:20;13.77;;;7.53;;
6902;SDS011;20232;49.408;8.702;2024-01-16T12:54:47;14.23;;;7.40;;
6902;SDS011;20232;49.408;8.702;2024-01-16T12:57:16;12.20;;;7.23;;
6902;SDS011;20232;49.408;8.702;2024-01-16T12:59:42;14.53;;;7.80;;
6902;SDS011;20232;49.408;8.702;2024-01-16T13:02:07;11.87;;;8.43;;
6902;SDS011;20232;49.408;8.702;2024-01-16T13:04:33;16.43;;;8.83;;
6902;SDS011;20232;49.408;8.702;2024-01-16T13:07:02;16.60;;;8.27;;
6902;SDS011;20232;49.408;8.702;2024-01-16T13:09:28;17.27;;;8.30;;
6902;SDS011;20232;49.408;8.702;2024-01-16T13:11:54;11.90;;;7.77;;
6902;SDS011;20232;49.408;8.702;2024-01-16T13:14:20;13.10;;;7.47;;
6902;SDS011;20232;49.408;8.702;2024-01-16T13:16:47;17.60;;;8.50;;
6902;SDS011;20232;49.408;8.702;2024-01-16T13:19:16;12.80;;;7.47;;
6902;SDS011;20232;49.408;8.702;2024-01-16T13:21:42;15.20;;;7.03;;
6902;SDS011;20232;49.408;8.702;2024-01-16T13:24:07;16.17;;;8.17;;
6902;SDS011;20232;49.408;8.702;2024-01-16T13:26:33;15.10;;;8.20;;
6902;SDS011;20232;49.408;8.702;2024-01-16T13:28:59;13.40;;;7.43;;
6902;SDS011;20232;49.408;8.702;2024-01-16T13:31:25;11.30;;;6.93;;
6902;SDS011;20232;49.408;8.702;2024-01-16T13:33:50;12.53;;;8.13;;
6902;SDS011;20232;49.408;8.702;2024-01-16T13:36:16;12.37;;;7.50;;
6902;SDS011;20232;49.408;8.702;2024-01-16T13:38:41;12.47;;;7.60;;
6902;SDS011;20232;49.408;8.702;2024-01-16T13:41:07;14.07;;;7.33;;
6902;SDS011;20232;49.408;8.702;2024-01-16T13:43:32;13.07;;;7.63;;
6902;SDS011;20232;49.408;8.702;2024-01-16T13:45:58;14.23;;;8.00;;
6902;SDS011;20232;49.408;8.702;2024-01-16T13:48:23;13.27;;;7.20;;
6902;SDS011;20232;49.408;8.702;2024-01-16T13:50:50;15.17;;;8.60;;
6902;SDS011;20232;49.408;8.702;2024-01-16T13:53:15;11.20;;;7.63;;
6902;SDS011;20232;49.408;8.702;2024-01-16T13:55:41;11.87;;;7.73;;
6902;SDS011;20232;49.408;8.702;2024-01-16T13:58:06;17.50;;;8.30;;
6902;SDS011;20232;49.408;8.702;2024-01-16T14:00:33;27.30;;;14.40;;
6902;SDS011;20232;49.408;8.702;2024-01-16T14:02:58;14.73;;;8.70;;
6902;SDS011;20232;49.408;8.702;2024-01-16T14:05:24;15.43;;;8.50;;
6902;SDS011;20232;49.408;8.702;2024-01-16T14:07:51;13.17;;;7.90;;
6902;SDS011;20232;49.408;8.702;2024-01-16T14:10:17;16.13;;;8.17;;
6902;SDS011;20232;49.408;8.702;2024-01-16T14:12:44;14.07;;;8.23;;
6902;SDS011;20232;49.408;8.702;2024-01-16T14:15:11;10.67;;;7.20;;
6902;SDS011;20232;49.408;8.702;2024-01-16T14:18:03;11.77;;;6.97;;
6902;SDS011;20232;49.408;8.702;2024-01-16T14:20:29;10.97;;;7.20;;
6902;SDS011;20232;49.408;8.702;2024-01-16T14:22:54;13.07;;;8.00;;
6902;SDS011;20232;49.408;8.702;2024-01-16T14:25:20;11.10;;;7.40;;
6902;SDS011;20232;49.408;8.702;2024-01-16T14:27:55;10.90;;;6.80;;
6902;SDS011;20232;49.408;8.702;2024-01-16T14:30:25;10.93;;;7.77;;
6902;SDS011;20232;49.408;8.702;2024-01-16T14:32:51;13.93;;;8.37;;
6902;SDS011;20232;49.408;8.702;2024-01-16T14:35:17;12.80;;;7.87;;
6902;SDS011;20232;49.408;8.702;2024-01-16T14:37:43;12.23;;;8.17;;
6902;SDS011;20232;49.408;8.702;2024-01-16T14:40:08;13.07;;;7.77;;
6902;SDS011;20232;49.408;8.702;2024-01-16T14:42:49;11.17;;;7.40;;
6902;SDS011;20232;49.408;8.702;2024-01-16T14:45:16;14.07;;;8.03;;
6902;SDS011;20232;49.408;8.702;2024-01-16T14:47:42;13.77;;;8.30;;
6902;SDS011;20232;49.408;8.702;2024-01-16T14:50:08;12.23;;;8.37;;
6902;SDS011;20232;49.408;8.702;2024-01-16T14:52:35;11.63;;;8.00;;
6902;SDS011;20232;49.408;8.702;2024-01-16T14:55:01;17.17;;;8.73;;
6902;SDS011;20232;49.408;8.702;2024-01-16T14:57:27;13.03;;;7.80;;
6902;SDS011;20232;49.408;8.702;2024-01-16T14:59:55;11.40;;;7.53;;
6902;SDS011;20232;49.408;8.702;2024-01-16T15:02:20;11.73;;;7.87;;
6902;SDS011;20232;49.408;8.702;2024-01-16T15:04:46;16.10;;;8.50;;
6902;SDS011;20232;49.408;8.702;2024-01-16T15:07:11;14.20;;;7.63;;
6902;SDS011;20232;49.408;8.702;2024-01-16T15:09:37;13.00;;;7.67;;
6902;SDS011;20232;49.408;8.702;2024-01-16T15:12:06;14.23;;;8.40;;
6902;SDS011;20232;49.408;8.702;2024-01-16T15:14:35;13.07;;;7.17;;
6902;SDS011;20232;49.408;8.702;2024-01-16T15:17:01;18.43;;;8.90;;
6902;SDS011;20232;49.408;8.702;2024-01-16T15:19:27;11.73;;;7.83;;
6902;SDS011;20232;49.408;8.702;2024-01-16T15:21:53;15.13;;;7.67;;
6902;SDS011;20232;49.408;8.702;2024-01-16T15:24:18;13.13;;;7.93;;
6902;SDS011;20232;49.408;8.702;2024-01-16T15:26:56;15.20;;;8.50;;
6902;SDS011;20232;49.408;8.702;2024-01-16T15:29:22;10.17;;;7.40;;
6902;SDS011;20232;49.408;8.702;2024-01-16T15:31:48;11.50;;;7.47;;
6902;SDS011;20232;49.408;8.702;2024-01-16T15:34:13;11.77;;;6.77;;
6902;SDS011;20232;49.408;8.702;2024-01-16T15:36:39;9.77;;;6.03;;
6902;SDS011;20232;49.408;8.702;2024-01-16T15:39:05;13.57;;;7.30;;
6902;SDS011;20232;49.408;8.702;2024-01-16T15:41:30;13.13;;;6.83;;
6902;SDS011;20232;49.408;8.702;2024-01-16T15:43:55;13.43;;;7.13;;
6902;SDS011;20232;49.408;8.702;2024-01-16T15:46:21;11.07;;;6.23;;
6902;SDS011;20232;49.408;8.702;2024-01-16T15:48:47;11.50;;;6.80;;
6902;SDS011;20232;49.408;8.702;2024-01-16T15:51:15;15.03;;;6.87;;
6902;SDS011;20232;49.408;8.702;2024-01-16T15:53:41;10.17;;;6.53;;
6902;SDS011;20232;49.408;8.702;2024-01-16T15:56:07;11.17;;;6.93;;
6902;SDS011;20232;49.408;8.702;2024-01-16T15:58:32;10.97;;;6.10;;
6902;SDS011;20232;49.408;8.702;2024-01-16T16:00:58;10.67;;;6.30;;
6902;SDS011;20232;49.408;8.702;2024-01-16T16:03:24;14.40;;;7.30;;
6902;SDS011;20232;49.408;8.702;2024-01-16T16:05:49;10.63;;;6.73;;
6902;SDS011;20232;49.408;8.702;2024-01-16T16:08:15;15.30;;;8.17;;
6902;SDS011;20232;49.408;8.702;2024-01-16T16:10:40;13.77;;;8.03;;
6902;SDS011;20232;49.408;8.702;2024-01-16T16:13:07;16.23;;;8.10;;
6902;SDS011;20232;49.408;8.702;2024-01-16T16:15:35;16.63;;;7.90;;
6902;SDS011;20232;49.408;8.702;2024-01-16T16:18:04;16.37;;;7.77;;
6902;SDS011;20232;49.408;8.702;2024-01-16T16:20:30;12.60;;;7.77;;
6902;SDS011;20232;49.408;8.702;2024-01-16T16:22:55;10.30;;;7.17;;
6902;SDS011;20232;49.408;8.702;2024-01-16T16:25:20;13.60;;;7.03;;
6902;SDS011;20232;49.408;8.702;2024-01-16T16:27:46;11.47;;;6.67;;
6902;SDS011;20232;49.408;8.702;2024-01-16T16:30:13;10.47;;;6.40;;
6902;SDS011;20232;49.408;8.702;2024-01-16T16:32:38;12.73;;;7.73;;
6902;SDS011;20232;49.408;8.702;2024-01-16T16:35:04;12.07;;;7.40;;
6902;SDS011;20232;49.408;8.702;2024-01-16T16:37:30;13.13;;;7.80;;
6902;SDS011;20232;49.408;8.702;2024-01-16T16:39:55;9.93;;;5.93;;
6902;SDS011;20232;49.408;8.702;2024-01-16T16:42:21;14.77;;;7.97;;
6902;SDS011;20232;49.408;8.702;2024-01-16T16:44:46;11.13;;;8.40;;
6902;SDS011;20232;49.408;8.702;2024-01-16T16:47:11;14.57;;;8.17;;
6902;SDS011;20232;49.408;8.702;2024-01-16T16:49:37;12.93;;;8.30;;
6902;SDS011;20232;49.408;8.702;2024-01-16T16:52:03;13.67;;;8.53;;
6902;SDS011;20232;49.408;8.702;2024-01-16T16:54:29;17.93;;;9.30;;
6902;SDS011;20232;49.408;8.702;2024-01-16T16:56:55;11.60;;;7.27;;
6902;SDS011;20232;49.408;8.702;2024-01-16T16:59:21;11.93;;;6.73;;
6902;SDS011;20232;49.408;8.702;2024-01-16T17:01:47;13.93;;;7.20;;
6902;SDS011;20232;49.408;8.702;2024-01-16T17:04:13;15.80;;;9.57;;
6902;SDS011;20232;49.408;8.702;2024-01-16T17:06:38;16.57;;;7.57;;
6902;SDS011;20232;49.408;8.702;2024-01-16T17:09:03;14.07;;;8.10;;
6902;SDS011;20232;49.408;8.702;2024-01-16T17:11:31;11.57;;;8.20;;
6902;SDS011;20232;49.408;8.702;2024-01-16T17:13:57;20.40;;;10.73;;
6902;SDS011;20232;49.408;8.702;2024-01-16T17:16:22;13.13;;;7.57;;
6902;SDS011;20232;49.408;8.702;2024-01-16T17:18:50;8.83;;;5.93;;
6902;SDS011;20232;49.408;8.702;2024-01-16T17:21:15;10.97;;;6.03;;
6902;SDS011;20232;49.408;8.702;2024-01-16T17:23:41;13.50;;;7.30;;
6902;SDS011;20232;49.408;8.702;2024-01-16T17:26:09;19.97;;;9.27;;
6902;SDS011;20232;49.408;8.702;2024-01-16T17:28:35;16.40;;;9.90;;
6902;SDS011;20232;49.408;8.702;2024-01-16T17:31:01;14.80;;;8.70;;
6902;SDS011;20232;49.408;8.702;2024-01-16T17:33:28;16.07;;;8.97;;
6902;SDS011;20232;49.408;8.702;2024-01-16T17:35:54;21.87;;;11.87;;
6902;SDS011;20232;49.408;8.702;2024-01-16T17:38:24;17.80;;;10.83;;
6902;SDS011;20232;49.408;8.702;2024-01-16T17:40:53;15.73;;;8.63;;
6902;SDS011;20232;49.408;8.702;2024-01-16T17:43:18;14.07;;;8.47;;
6902;SDS011;20232;49.408;8.702;2024-01-16T17:45:45;10.87;;;7.47;;
6902;SDS011;20232;49.408;8.702;2024-01-16T17:48:11;10.33;;;7.23;;
6902;SDS011;20232;49.408;8.702;2024-01-16T17:50:36;13.10;;;8.03;;
6902;SDS011;20232;49.408;8.702;2024-01-16T17:53:02;13.00;;;7.60;;
6902;SDS011;20232;49.408;8.702;2024-01-16T17:55:31;14.00;;;8.83;;
6902;SDS011;20232;49.408;8.702;2024-01-16T17:57:59;19.53;;;10.63;;
6902;SDS011;20232;49.408;8.702;2024-01-16T18:00:25;23.47;;;11.77;;
6902;SDS011;20232;49.408;8.702;2024-01-16T18:02:53;18.70;;;10.13;;
6902;SDS011;20232;49.408;8.702;2024-01-16T18:05:19;12.03;;;6.93;;
6902;SDS011;20232;49.408;8.702;2024-01-16T18:07:44;14.00;;;7.00;;
6902;SDS011;20232;49.408;8.702;2024-01-16T18:10:10;14.67;;;8.97;;
6902;SDS011;20232;49.408;8.702;2024-01-16T18:12:39;18.10;;;10.40;;
6902;SDS011;20232;49.408;8.702;2024-01-16T18:15:06;19.60;;;10.47;;
6902;SDS011;20232;49.408;8.702;2024-01-16T18:17:43;16.53;;;10.73;;
6902;SDS011;20232;49.408;8.702;2024-01-16T18:20:10;20.47;;;10.33;;
6902;SDS011;20232;49.408;8.702;2024-01-16T18:22:37;17.90;;;9.43;;
6902;SDS011;20232;49.408;8.702;2024-01-16T18:25:06;18.87;;;10.60;;
6902;SDS011;20232;49.408;8.702;2024-01-16T18:27:33;18.33;;;11.03;;
6902;SDS011;20232;49.408;8.702;2024-01-16T18:29:59;21.20;;;12.00;;
6902;SDS011;20232;49.408;8.702;2024-01-16T18:32:25;15.30;;;9.73;;
6902;SDS011;20232;49.408;8.702;2024-01-16T18:34:50;17.70;;;10.97;;
6902;SDS011;20232;49.408;8.702;2024-01-16T18:37:16;20.93;;;11.90;;
6902;SDS011;20232;49.408;8.702;2024-01-16T18:39:43;17.73;;;11.57;;
6902;SDS011;20232;49.408;8.702;2024-01-16T18:42:09;21.97;;;12.50;;
6902;SDS011;20232;49.408;8.702;2024-01-16T18:44:36;22.53;;;13.17;;
6902;SDS011;20232;49.408;8.702;2024-01-16T18:47:02;20.53;;;12.70;;
6902;SDS011;20232;49.408;8.702;2024-01-16T18:49:28;21.77;;;12.87;;
6902;SDS011;20232;49.408;8.702;2024-01-16T18:51:53;17.67;;;11.73;;
6902;SDS011;20232;49.408;8.702;2024-01-16T18:54:20;21.73;;;12.00;;
6902;SDS011;20232;49.408;8.702;2024-01-16T18:56:46;16.60;;;11.40;;
6902;SDS011;20232;49.408;8.702;2024-01-16T18:59:11;18.17;;;10.90;;
6902;SDS011;20232;49.408;8.702;2024-01-16T19:01:37;16.20;;;9.17;;
6902;SDS011;20232;49.408;8.702;2024-01-16T19:04:04;17.10;;;10.33;;
6902;SDS011;20232;49.408;8.702;2024-01-16T19:06:30;16.97;;;11.43;;
6902;SDS011;20232;49.408;8.702;2024-01-16T19:08:55;19.50;;;11.30;;
6902;SDS011;20232;49.408;8.702;2024-01-16T19:11:22;23.03;;;13.00;;
6902;SDS011;20232;49.408;8.702;2024-01-16T19:13:48;26.10;;;10.10;;
6902;SDS011;20232;49.408;8.702;2024-01-16T19:16:13;20.87;;;11.57;;
6902;SDS011;20232;49.408;8.702;2024-01-16T19:18:39;18.23;;;12.00;;
6902;SDS011;20232;49.408;8.702;2024-01-16T19:21:06;20.17;;;11.77;;
6902;SDS011;20232;49.408;8.702;2024-01-16T19:23:36;20.03;;;10.97;;
6902;SDS011;20232;49.408;8.702;2024-01-16T19:26:02;20.37;;;11.10;;
6902;SDS011;20232;49.408;8.702;2024-01-16T19:28:31;18.00;;;11.37;;
6902;SDS011;20232;49.408;8.702;2024-01-16T19:30:58;19.00;;;11.03;;
6902;SDS011;20232;49.408;8.702;2024-01-16T19:33:27;21.70;;;11.77;;
6902;SDS011;20232;49.408;8.702;2024-01-16T19:35:53;16.77;;;9.93;;
6902;SDS011;20232;49.408;8.702;2024-01-16T19:38:20;19.00;;;11.70;;
6902;SDS011;20232;49.408;8.702;2024-01-16T19:40:47;17.73;;;10.27;;
6902;SDS011;20232;49.408;8.702;2024-01-16T19:43:12;18.17;;;11.53;;
6902;SDS011;20232;49.408;8.702;2024-01-16T19:45:37;19.00;;;11.10;;
6902;SDS011;20232;49.408;8.702;2024-01-16T19:48:03;23.27;;;11.30;;
6902;SDS011;20232;49.408;8.702;2024-01-16T19:50:30;29.27;;;10.93;;
6902;SDS011;20232;49.408;8.702;2024-01-16T19:52:56;23.23;;;11.27;;
6902;SDS011;20232;49.408;8.702;2024-01-16T19:55:22;20.33;;;11.00;;